createdAt,value
2023-05-02T00:01:28.876Z,1.70
2023-05-02T00:04:00.230Z,1.80
2023-05-02T00:06:33.093Z,1.80
2023-05-02T00:09:05.038Z,1.80
2023-05-02T00:11:36.741Z,1.70
2023-05-02T00:14:07.936Z,1.70
2023-05-02T00:16:39.440Z,1.50
2023-05-02T00:19:10.635Z,1.50
2023-05-02T00:21:42.144Z,1.80
2023-05-02T00:24:13.801Z,1.60
2023-05-02T00:26:45.416Z,1.70
2023-05-02T00:29:17.428Z,1.40
2023-05-02T00:31:48.939Z,1.60
2023-05-02T00:34:21.106Z,1.50
2023-05-02T00:36:52.941Z,1.50
2023-05-02T00:39:24.430Z,1.70
2023-05-02T00:42:00.870Z,1.90
2023-05-02T00:44:32.909Z,1.70
2023-05-02T00:47:05.049Z,1.70
2023-05-02T00:49:37.469Z,1.60
2023-05-02T00:52:09.540Z,1.50
2023-05-02T00:54:41.792Z,1.80
2023-05-02T00:57:14.292Z,1.40
2023-05-02T00:59:47.016Z,1.40
2023-05-02T01:02:32.274Z,1.40
2023-05-02T01:05:12.206Z,1.50
2023-05-02T01:07:59.862Z,1.60
2023-05-02T01:10:40.016Z,1.60
2023-05-02T01:13:15.461Z,1.20
2023-05-02T01:15:49.005Z,1.20
2023-05-02T01:18:23.887Z,1.30
2023-05-02T01:20:59.650Z,1.30
2023-05-02T01:23:37.636Z,1.40
2023-05-02T01:26:18.681Z,1.10
2023-05-02T01:29:02.138Z,1.30
2023-05-02T01:31:37.959Z,1.20
2023-05-02T01:34:12.212Z,1.30
2023-05-02T01:36:48.565Z,1.00
2023-05-02T01:39:24.087Z,1.00
2023-05-02T01:41:58.292Z,1.10
2023-05-02T01:44:31.774Z,1.10
2023-05-02T01:47:06.542Z,1.20
2023-05-02T01:49:39.864Z,1.20
2023-05-02T01:52:14.096Z,1.20
2023-05-02T01:54:46.390Z,1.20
2023-05-02T01:57:20.064Z,1.10
2023-05-02T01:59:53.305Z,0.90
2023-05-02T02:02:28.358Z,1.10
2023-05-02T02:05:01.261Z,1.00
2023-05-02T02:07:33.269Z,1.00
2023-05-02T02:10:05.192Z,1.10
2023-05-02T02:12:44.363Z,1.10
2023-05-02T02:15:27.389Z,0.90
2023-05-02T02:18:03.125Z,1.10
2023-05-02T02:20:36.454Z,0.90
2023-05-02T02:23:10.252Z,1.30
2023-05-02T02:25:42.309Z,1.00
2023-05-02T02:28:14.010Z,1.00
2023-05-02T02:30:45.716Z,1.10
2023-05-02T02:33:17.828Z,1.10
2023-05-02T02:35:55.602Z,1.00
2023-05-02T02:38:33.631Z,1.10
2023-05-02T02:41:14.103Z,1.00
2023-05-02T02:43:56.399Z,0.90
2023-05-02T02:46:36.482Z,1.20
2023-05-02T02:49:25.583Z,1.40
2023-05-02T02:52:04.475Z,1.20
2023-05-02T02:54:41.074Z,1.30
2023-05-02T02:57:20.342Z,1.10
2023-05-02T02:59:59.102Z,1.20
2023-05-02T03:02:34.063Z,1.00
2023-05-02T03:05:08.817Z,1.00
2023-05-02T03:07:40.108Z,1.00
2023-05-02T03:10:13.018Z,1.30
2023-05-02T03:12:44.829Z,1.00
2023-05-02T03:15:33.180Z,1.30
2023-05-02T03:18:05.012Z,1.20
2023-05-02T03:20:36.939Z,1.20
2023-05-02T03:23:09.057Z,1.20
2023-05-02T03:25:40.416Z,1.20
2023-05-02T03:28:14.209Z,1.20
2023-05-02T03:30:46.621Z,1.30
2023-05-02T03:33:18.156Z,1.10
2023-05-02T03:35:49.654Z,1.20
2023-05-02T03:38:21.194Z,1.40
2023-05-02T03:40:52.846Z,1.30
2023-05-02T03:43:24.240Z,1.20
2023-05-02T03:45:55.835Z,1.00
2023-05-02T03:48:28.180Z,1.40
2023-05-02T03:51:00.658Z,1.20
2023-05-02T03:53:32.890Z,1.00
2023-05-02T03:56:04.932Z,1.30
2023-05-02T03:58:41.584Z,1.30
2023-05-02T04:01:18.052Z,1.10
2023-05-02T04:03:53.461Z,1.30
2023-05-02T04:06:28.144Z,1.30
2023-05-02T04:09:03.145Z,1.40
2023-05-02T04:11:40.738Z,1.10
2023-05-02T04:14:13.114Z,1.20
2023-05-02T04:16:51.602Z,1.20
2023-05-02T04:19:30.609Z,1.20
2023-05-02T04:22:03.110Z,1.20
2023-05-02T04:24:37.527Z,1.30
2023-05-02T04:27:09.199Z,1.30
2023-05-02T04:29:40.871Z,1.20
2023-05-02T04:32:13.437Z,1.30
2023-05-02T04:34:45.198Z,1.20
2023-05-02T04:37:16.727Z,1.40
2023-05-02T04:39:49.437Z,1.30
2023-05-02T04:42:27.795Z,2.70
2023-05-02T04:45:14.043Z,1.70
2023-05-02T04:47:47.569Z,1.50
2023-05-02T04:50:19.366Z,1.00
2023-05-02T04:52:51.183Z,1.10
2023-05-02T04:55:23.132Z,1.30
2023-05-02T04:57:55.269Z,1.20
2023-05-02T05:00:27.166Z,1.30
2023-05-02T05:03:00.186Z,1.60
2023-05-02T05:05:33.162Z,1.20
2023-05-02T05:08:06.554Z,1.30
2023-05-02T05:10:41.167Z,1.60
2023-05-02T05:13:14.412Z,1.30
2023-05-02T05:15:49.077Z,1.20
2023-05-02T05:18:22.056Z,1.00
2023-05-02T05:20:53.440Z,1.20
2023-05-02T05:23:25.103Z,1.30
2023-05-02T05:25:56.415Z,1.20
2023-05-02T05:28:27.772Z,1.30
2023-05-02T05:30:59.126Z,1.30
2023-05-02T05:33:30.858Z,1.20
2023-05-02T05:36:09.053Z,1.30
2023-05-02T05:38:40.855Z,1.10
2023-05-02T05:41:13.534Z,1.00
2023-05-02T05:43:49.691Z,0.90
2023-05-02T05:46:20.936Z,1.00
2023-05-02T05:48:52.490Z,1.20
2023-05-02T05:51:25.003Z,0.80
2023-05-02T05:53:56.609Z,0.90
2023-05-02T05:56:28.381Z,0.80
2023-05-02T05:59:06.283Z,1.10
2023-05-02T06:01:38.465Z,0.90
2023-05-02T06:04:11.037Z,1.10
2023-05-02T06:06:45.907Z,0.90
2023-05-02T06:09:17.749Z,0.80
2023-05-02T06:11:49.099Z,0.90
2023-05-02T06:14:20.971Z,1.00
2023-05-02T06:16:54.330Z,0.90
2023-05-02T06:19:25.925Z,1.00
2023-05-02T06:21:57.203Z,0.90
2023-05-02T06:24:28.400Z,0.90
2023-05-02T06:27:00.374Z,1.10
2023-05-02T06:29:31.886Z,0.80
2023-05-02T06:32:04.245Z,1.00
2023-05-02T06:34:36.450Z,1.20
2023-05-02T06:37:08.081Z,1.20
2023-05-02T06:39:39.851Z,1.00
2023-05-02T06:42:11.396Z,1.00
2023-05-02T06:44:42.881Z,1.10
2023-05-02T06:47:14.440Z,1.00
2023-05-02T06:49:45.550Z,0.90
2023-05-02T06:52:17.415Z,1.10
2023-05-02T06:54:48.559Z,1.20
2023-05-02T06:57:20.157Z,0.90
2023-05-02T06:59:51.966Z,0.90
2023-05-02T07:02:23.567Z,1.00
2023-05-02T07:04:55.215Z,1.00
2023-05-02T07:07:26.878Z,0.80
2023-05-02T07:09:58.488Z,0.90
2023-05-02T07:12:30.092Z,0.70
2023-05-02T07:15:01.834Z,1.10
2023-05-02T07:17:33.529Z,0.90
2023-05-02T07:20:05.652Z,0.70
2023-05-02T07:22:37.460Z,0.80
2023-05-02T07:25:09.930Z,0.70
2023-05-02T07:27:41.520Z,0.90
2023-05-02T07:30:14.809Z,0.80
2023-05-02T07:32:46.413Z,1.00
2023-05-02T07:35:19.295Z,0.80
2023-05-02T07:37:50.552Z,0.80
2023-05-02T07:40:22.423Z,0.90
2023-05-02T07:42:53.611Z,0.80
2023-05-02T07:45:25.298Z,0.80
2023-05-02T07:47:56.813Z,0.70
2023-05-02T07:50:28.847Z,0.80
2023-05-02T07:53:00.630Z,1.10
2023-05-02T07:55:33.403Z,1.00
2023-05-02T07:58:04.769Z,0.80
2023-05-02T08:00:37.042Z,1.00
2023-05-02T08:03:09.162Z,0.90
2023-05-02T08:05:40.985Z,0.80
2023-05-02T08:08:12.140Z,0.70
2023-05-02T08:10:43.655Z,0.80
2023-05-02T08:13:15.793Z,0.70
2023-05-02T08:15:47.501Z,0.90
2023-05-02T08:18:19.063Z,0.70
2023-05-02T08:20:51.009Z,1.00
2023-05-02T08:23:22.039Z,1.00
2023-05-02T08:25:53.920Z,0.90
2023-05-02T08:28:25.636Z,0.70
2023-05-02T08:30:57.539Z,0.70
2023-05-02T08:33:32.062Z,0.80
2023-05-02T08:36:12.471Z,0.90
2023-05-02T08:38:44.073Z,0.80
2023-05-02T08:41:17.162Z,0.90
2023-05-02T08:43:48.958Z,0.90
2023-05-02T08:46:24.019Z,0.90
2023-05-02T08:48:59.285Z,0.90
2023-05-02T08:51:32.635Z,1.00
2023-05-02T08:54:05.697Z,0.80
2023-05-02T08:56:37.424Z,0.90
2023-05-02T08:59:09.688Z,1.10
2023-05-02T09:01:47.696Z,1.10
2023-05-02T09:04:22.497Z,1.20
2023-05-02T09:06:54.327Z,0.90
2023-05-02T09:09:26.102Z,1.10
2023-05-02T09:11:57.858Z,1.20
2023-05-02T09:14:29.268Z,1.00
2023-05-02T09:17:02.974Z,1.00
2023-05-02T09:19:34.317Z,1.20
2023-05-02T09:22:05.908Z,1.10
2023-05-02T09:24:39.478Z,1.10
2023-05-02T09:27:10.991Z,1.10
2023-05-02T09:29:46.162Z,1.10
2023-05-02T09:32:17.586Z,1.40
2023-05-02T09:35:08.339Z,1.10
2023-05-02T09:37:39.896Z,1.20
2023-05-02T09:40:13.201Z,1.30
2023-05-02T09:42:45.220Z,1.40
2023-05-02T09:45:25.289Z,1.20
2023-05-02T09:48:03.197Z,1.30
2023-05-02T09:50:39.169Z,1.30
2023-05-02T09:53:12.004Z,1.30
2023-05-02T09:55:43.719Z,1.20
2023-05-02T09:58:25.676Z,1.20
2023-05-02T10:00:57.049Z,1.30
2023-05-02T10:03:29.971Z,1.40
2023-05-02T10:06:02.453Z,1.50
2023-05-02T10:08:36.282Z,1.50
2023-05-02T10:11:10.839Z,1.20
2023-05-02T10:13:44.817Z,1.50
2023-05-02T10:16:25.242Z,1.30
2023-05-02T10:19:04.442Z,1.60
2023-05-02T10:21:38.218Z,1.60
2023-05-02T10:24:09.913Z,1.50
2023-05-02T10:26:42.264Z,1.70
2023-05-02T10:29:13.883Z,1.80
2023-05-02T10:31:46.646Z,1.40
2023-05-02T10:34:20.059Z,1.60
2023-05-02T10:36:51.783Z,1.40
2023-05-02T10:39:25.327Z,1.50
2023-05-02T10:41:59.355Z,1.60
2023-05-02T10:44:38.028Z,1.50
2023-05-02T10:47:23.617Z,1.20
2023-05-02T10:49:57.196Z,1.20
2023-05-02T10:52:34.460Z,1.10
2023-05-02T10:55:21.713Z,1.40
2023-05-02T10:58:19.774Z,1.10
2023-05-02T11:00:51.347Z,1.10
2023-05-02T11:03:49.607Z,0.80
2023-05-02T11:06:21.559Z,0.90
2023-05-02T11:08:53.329Z,0.90
2023-05-02T11:11:42.145Z,1.00
2023-05-02T11:14:14.509Z,1.00
2023-05-02T11:17:12.575Z,1.20
2023-05-02T11:20:10.510Z,1.00
2023-05-02T11:22:45.017Z,1.00
2023-05-02T11:25:33.468Z,0.80
2023-05-02T11:28:09.229Z,1.00
2023-05-02T11:30:48.829Z,0.90
2023-05-02T11:33:21.713Z,1.00
2023-05-02T11:35:52.952Z,1.40
2023-05-02T11:38:24.469Z,1.50
2023-05-02T11:41:00.935Z,1.10
2023-05-02T11:43:32.698Z,1.10
2023-05-02T11:46:05.495Z,1.00
2023-05-02T11:48:37.433Z,1.10
2023-05-02T11:51:09.038Z,1.00
2023-05-02T11:53:43.738Z,0.90
2023-05-02T11:56:15.160Z,0.90
2023-05-02T11:58:47.179Z,1.00
2023-05-02T12:01:19.037Z,1.00
2023-05-02T12:03:52.588Z,1.10
2023-05-02T12:06:24.743Z,1.10
2023-05-02T12:09:09.808Z,1.20
2023-05-02T12:11:41.362Z,1.00
2023-05-02T12:14:12.620Z,1.20
2023-05-02T12:16:44.784Z,1.00
2023-05-02T12:19:17.045Z,1.00
2023-05-02T12:21:48.654Z,0.90
2023-05-02T12:24:20.702Z,1.20
2023-05-02T12:27:09.760Z,1.00
2023-05-02T12:29:45.797Z,0.90
2023-05-02T12:32:28.222Z,1.10
2023-05-02T12:35:00.877Z,1.10
2023-05-02T12:37:32.769Z,1.30
2023-05-02T12:40:04.649Z,1.20
2023-05-02T12:42:36.267Z,1.20
2023-05-02T12:45:18.198Z,1.10
2023-05-02T12:47:49.579Z,1.00
2023-05-02T12:50:21.418Z,1.10
2023-05-02T12:52:57.706Z,1.00
2023-05-02T12:55:29.603Z,1.10
2023-05-02T12:58:05.924Z,1.00
2023-05-02T13:00:39.832Z,0.80
2023-05-02T13:03:11.868Z,1.00
2023-05-02T13:05:43.309Z,1.10
2023-05-02T13:08:14.914Z,1.10
2023-05-02T13:10:46.723Z,1.00
2023-05-02T13:13:18.256Z,1.00
2023-05-02T13:15:49.699Z,1.00
2023-05-02T13:18:20.854Z,1.00
2023-05-02T13:20:52.405Z,1.00
2023-05-02T13:23:23.375Z,1.10
2023-05-02T13:25:54.783Z,1.20
2023-05-02T13:28:25.964Z,1.10
2023-05-02T13:30:57.378Z,1.10
2023-05-02T13:33:28.669Z,0.90
2023-05-02T13:35:59.997Z,0.90
2023-05-02T13:38:31.409Z,1.00
2023-05-02T13:41:02.737Z,1.10
2023-05-02T13:43:34.152Z,0.90
2023-05-02T13:46:05.440Z,0.90
2023-05-02T13:48:37.442Z,1.00
2023-05-02T13:51:09.205Z,1.20
2023-05-02T13:53:40.456Z,1.20
2023-05-02T13:56:12.119Z,1.10
2023-05-02T13:58:43.606Z,1.00
2023-05-02T14:01:14.931Z,1.10
2023-05-02T14:03:46.860Z,1.00
2023-05-02T14:06:18.624Z,1.10
2023-05-02T14:08:51.359Z,1.10
2023-05-02T14:11:22.678Z,1.10
2023-05-02T14:13:54.118Z,0.90
2023-05-02T14:16:26.030Z,1.00
2023-05-02T14:18:57.581Z,0.90
2023-05-02T14:21:29.427Z,0.90
2023-05-02T14:24:01.548Z,1.10
2023-05-02T14:26:32.918Z,1.10
2023-05-02T14:29:04.153Z,1.10
2023-05-02T14:31:35.398Z,0.90
2023-05-02T14:34:08.828Z,1.10
2023-05-02T14:36:40.858Z,1.10
2023-05-02T14:39:12.638Z,0.90
2023-05-02T14:41:44.126Z,1.00
2023-05-02T14:44:15.314Z,1.10
2023-05-02T14:46:46.783Z,1.10
2023-05-02T14:49:18.490Z,1.00
2023-05-02T14:51:50.424Z,1.00
2023-05-02T14:54:23.081Z,1.20
2023-05-02T14:56:54.652Z,1.10
2023-05-02T14:59:29.237Z,1.00
2023-05-02T15:02:00.898Z,0.90
2023-05-02T15:04:33.512Z,0.90
2023-05-02T15:07:05.247Z,1.20
2023-05-02T15:09:36.682Z,1.50
2023-05-02T15:12:08.853Z,1.30
2023-05-02T15:14:40.684Z,1.40
2023-05-02T15:17:11.949Z,1.40
2023-05-02T15:19:43.316Z,1.40
2023-05-02T15:22:16.335Z,1.50
2023-05-02T15:24:47.671Z,1.60
2023-05-02T15:27:19.621Z,1.40
2023-05-02T15:29:51.072Z,1.30
2023-05-02T15:32:23.255Z,1.50
2023-05-02T15:34:55.283Z,1.40
2023-05-02T15:37:26.753Z,1.40
2023-05-02T15:39:58.380Z,1.40
2023-05-02T15:42:29.917Z,1.30
2023-05-02T15:45:01.169Z,1.20
2023-05-02T15:47:32.693Z,1.30
2023-05-02T15:50:05.196Z,1.50
2023-05-02T15:52:37.212Z,1.40
2023-05-02T15:55:10.031Z,1.30
2023-05-02T15:57:41.235Z,1.30
2023-05-02T16:00:17.040Z,1.30
2023-05-02T16:02:48.854Z,1.30
2023-05-02T16:05:20.194Z,1.30
2023-05-02T16:07:51.876Z,1.30
2023-05-02T16:10:23.824Z,1.40
2023-05-02T16:12:55.314Z,1.30
2023-05-02T16:15:27.701Z,1.60
2023-05-02T16:17:59.924Z,1.20
2023-05-02T16:20:32.705Z,1.40
2023-05-02T16:23:04.279Z,1.50
2023-05-02T16:25:35.514Z,2.00
2023-05-02T16:28:07.322Z,1.50
2023-05-02T16:30:40.059Z,1.50
2023-05-02T16:33:13.037Z,1.40
2023-05-02T16:35:44.826Z,1.60
2023-05-02T16:38:16.196Z,1.40
2023-05-02T16:40:47.602Z,1.80
2023-05-02T16:43:19.411Z,1.90
2023-05-02T16:46:00.697Z,1.60
2023-05-02T16:48:32.226Z,1.40
2023-05-02T16:51:04.540Z,1.50
2023-05-02T16:53:36.165Z,1.60
2023-05-02T16:56:08.952Z,1.20
2023-05-02T16:58:40.208Z,1.60
2023-05-02T17:01:11.657Z,1.50
2023-05-02T17:03:44.042Z,1.70
2023-05-02T17:06:15.865Z,1.40
2023-05-02T17:08:47.289Z,1.50
2023-05-02T17:11:18.788Z,1.50
2023-05-02T17:13:50.365Z,1.30
2023-05-02T17:16:22.195Z,1.40
2023-05-02T17:18:55.248Z,1.40
2023-05-02T17:21:27.903Z,1.30
2023-05-02T17:23:59.274Z,1.50
2023-05-02T17:26:30.617Z,1.30
2023-05-02T17:29:02.312Z,1.30
2023-05-02T17:31:33.854Z,1.10
2023-05-02T17:34:05.004Z,1.30
2023-05-02T17:36:36.719Z,1.30
2023-05-02T17:39:08.193Z,1.20
2023-05-02T17:41:40.142Z,1.10
2023-05-02T17:44:11.692Z,1.20
2023-05-02T17:46:43.467Z,1.20
2023-05-02T17:49:15.504Z,1.10
2023-05-02T17:51:46.814Z,1.30
2023-05-02T17:54:18.827Z,1.30
2023-05-02T17:56:50.786Z,1.30
2023-05-02T17:59:22.864Z,1.20
2023-05-02T18:01:54.651Z,1.20
2023-05-02T18:04:26.112Z,1.50
2023-05-02T18:06:57.760Z,1.60
2023-05-02T18:09:29.281Z,1.30
2023-05-02T18:12:04.511Z,1.10
2023-05-02T18:14:36.192Z,1.30
2023-05-02T18:17:09.814Z,1.20
2023-05-02T18:19:41.769Z,1.10
2023-05-02T18:22:14.234Z,1.30
2023-05-02T18:24:45.385Z,1.70
2023-05-02T18:27:17.775Z,1.50
2023-05-02T18:29:49.761Z,1.40
2023-05-02T18:32:21.641Z,1.20
2023-05-02T18:34:53.143Z,1.20
2023-05-02T18:37:31.213Z,1.30
2023-05-02T18:40:03.172Z,1.20
2023-05-02T18:42:35.276Z,1.20
2023-05-02T18:45:08.052Z,1.20
2023-05-02T18:47:39.419Z,1.20
2023-05-02T18:50:12.035Z,1.20
2023-05-02T18:52:43.288Z,1.00
2023-05-02T18:55:14.668Z,1.00
2023-05-02T18:57:47.917Z,1.20
2023-05-02T19:00:20.992Z,1.10
2023-05-02T19:02:54.530Z,1.20
2023-05-02T19:05:27.302Z,1.20
2023-05-02T19:07:58.447Z,1.00
2023-05-02T19:10:29.830Z,1.20
2023-05-02T19:13:01.153Z,1.30
2023-05-02T19:15:34.594Z,1.30
2023-05-02T19:18:06.330Z,1.00
2023-05-02T19:20:37.774Z,1.10
2023-05-02T19:23:19.814Z,1.10
2023-05-02T19:25:52.742Z,1.00
2023-05-02T19:28:23.889Z,1.00
2023-05-02T19:30:55.018Z,1.20
2023-05-02T19:33:26.659Z,3.80
2023-05-02T19:35:58.756Z,2.20
2023-05-02T19:38:30.319Z,1.40
2023-05-02T19:41:02.148Z,2.00
2023-05-02T19:43:35.769Z,1.90
2023-05-02T19:46:07.496Z,2.10
2023-05-02T19:48:40.044Z,1.60
2023-05-02T19:51:12.353Z,2.80
2023-05-02T19:53:43.733Z,2.00
2023-05-02T19:56:15.035Z,1.60
2023-05-02T19:58:46.534Z,1.20
2023-05-02T20:01:18.383Z,1.20
2023-05-02T20:03:53.026Z,1.20
2023-05-02T20:06:24.857Z,1.30
2023-05-02T20:08:56.024Z,1.40
2023-05-02T20:11:27.500Z,1.10
2023-05-02T20:13:59.043Z,1.20
2023-05-02T20:16:31.625Z,1.20
2023-05-02T20:19:04.398Z,1.10
2023-05-02T20:21:35.829Z,1.10
2023-05-02T20:24:09.053Z,1.10
2023-05-02T20:26:40.175Z,1.10
2023-05-02T20:29:11.608Z,1.10
2023-05-02T20:31:43.535Z,1.00
2023-05-02T20:34:16.160Z,0.90
2023-05-02T20:36:51.524Z,1.10
2023-05-02T20:39:23.096Z,1.00
2023-05-02T20:41:54.296Z,1.10
2023-05-02T20:44:26.516Z,1.10
2023-05-02T20:46:57.749Z,1.00
2023-05-02T20:49:31.499Z,1.10
2023-05-02T20:52:07.274Z,1.10
2023-05-02T20:54:38.803Z,1.00
2023-05-02T20:57:10.078Z,1.30
2023-05-02T20:59:41.870Z,1.10
2023-05-02T21:02:14.390Z,1.10
2023-05-02T21:04:46.059Z,1.10
2023-05-02T21:07:17.540Z,1.20
2023-05-02T21:09:49.068Z,1.00
2023-05-02T21:12:21.749Z,1.30
2023-05-02T21:14:53.760Z,1.00
2023-05-02T21:17:26.989Z,1.20
2023-05-02T21:19:58.233Z,1.00
2023-05-02T21:22:29.504Z,1.00
2023-05-02T21:25:00.545Z,1.10
2023-05-02T21:27:32.360Z,1.20
2023-05-02T21:30:04.114Z,1.00
2023-05-02T21:32:35.563Z,1.10
2023-05-02T21:35:08.454Z,1.10
2023-05-02T21:37:39.969Z,1.60
2023-05-02T21:40:14.645Z,1.60
2023-05-02T21:42:48.922Z,1.70
2023-05-02T21:45:21.635Z,2.10
2023-05-02T21:47:53.178Z,2.30
2023-05-02T21:50:25.077Z,1.80
2023-05-02T21:52:57.055Z,1.80
2023-05-02T21:55:28.464Z,2.10
2023-05-02T21:57:59.927Z,2.10
2023-05-02T22:00:32.135Z,1.80
2023-05-02T22:03:07.980Z,1.80
2023-05-02T22:05:41.339Z,1.70
2023-05-02T22:08:14.439Z,1.80
2023-05-02T22:10:46.077Z,1.30
2023-05-02T22:13:18.806Z,1.50
2023-05-02T22:15:51.213Z,1.40
2023-05-02T22:18:22.850Z,1.30
2023-05-02T22:20:54.293Z,1.50
2023-05-02T22:23:26.198Z,1.50
2023-05-02T22:25:57.622Z,1.30
2023-05-02T22:28:29.375Z,1.30
2023-05-02T22:31:01.626Z,1.20
2023-05-02T22:33:33.097Z,1.30
2023-05-02T22:36:05.407Z,1.40
2023-05-02T22:38:39.906Z,1.30
2023-05-02T22:41:11.318Z,1.30
2023-05-02T22:43:43.001Z,1.20
2023-05-02T22:46:14.563Z,1.20
2023-05-02T22:48:46.262Z,1.60
2023-05-02T22:51:18.032Z,1.30
2023-05-02T22:53:49.526Z,1.50
2023-05-02T22:56:20.923Z,1.60
2023-05-02T22:58:52.453Z,1.40
2023-05-02T23:01:24.283Z,1.40
2023-05-02T23:03:55.772Z,1.50
2023-05-02T23:06:28.850Z,1.30
2023-05-02T23:09:00.362Z,1.20
2023-05-02T23:11:32.832Z,1.30
2023-05-02T23:14:04.095Z,1.30
2023-05-02T23:16:35.939Z,1.60
2023-05-02T23:19:07.720Z,1.80
2023-05-02T23:21:39.558Z,1.50
2023-05-02T23:24:11.724Z,1.50
2023-05-02T23:26:43.888Z,1.40
2023-05-02T23:29:15.428Z,2.00
2023-05-02T23:31:47.610Z,1.60
2023-05-02T23:34:19.327Z,1.90
2023-05-02T23:36:52.561Z,1.70
2023-05-02T23:39:23.948Z,2.00
2023-05-02T23:41:55.271Z,1.70
2023-05-02T23:44:26.692Z,1.90
2023-05-02T23:46:58.255Z,2.10
2023-05-02T23:49:29.518Z,1.80
2023-05-02T23:52:03.005Z,1.90
2023-05-02T23:54:35.647Z,2.20
2023-05-02T23:57:08.289Z,1.90
2023-05-02T23:59:39.902Z,1.80
